Time;durP1;ratioP1;P1;durP2;ratioP2;P2;SDS_P1;SDS_P2;PMS_P1;PMS_P2;Temp;Humidity;BMP_temperature;BMP_pressure;BME280_temperature;BME280_humidity;BME280_pressure;Samples;Min_cycle;Max_cycle;Signal;HPM_P1;HPM_P2
2021/10/20 00:01:28;;;;;;;12.02;2.53;;;15.00;99.90;;;;;;5052294;28;20017;-88
2021/10/20 00:03:54;;;;;;;15.35;2.63;;;15.10;99.90;;;;;;5049538;28;20543;-89
2021/10/20 00:06:20;;;;;;;10.60;2.92;;;15.00;99.90;;;;;;5052650;28;20033;-90
2021/10/20 00:08:45;;;;;;;15.25;3.00;;;15.00;99.90;;;;;;5052485;28;20055;-89
2021/10/20 00:11:12;;;;;;;19.35;3.85;;;15.10;99.90;;;;;;5052294;28;20033;-89
2021/10/20 00:13:38;;;;;;;20.23;2.88;;;15.00;99.90;;;;;;5052440;28;20021;-89
2021/10/20 00:16:04;;;;;;;17.33;2.88;;;15.00;99.90;;;;;;5052451;28;20036;-89
2021/10/20 00:18:29;;;;;;;15.05;3.13;;;15.00;99.90;;;;;;5052064;28;20474;-89
2021/10/20 00:20:56;;;;;;;11.75;2.42;;;15.00;99.90;;;;;;5052030;28;20020;-89
2021/10/20 00:23:22;;;;;;;14.65;3.05;;;14.90;99.90;;;;;;5052104;28;20035;-89
2021/10/20 00:25:48;;;;;;;16.88;4.18;;;14.90;99.90;;;;;;5051945;28;20028;-90
2021/10/20 00:28:13;;;;;;;13.30;2.63;;;14.90;99.90;;;;;;5049540;28;20021;-89
2021/10/20 00:30:39;;;;;;;14.45;2.83;;;14.90;99.90;;;;;;5052085;28;20028;-89
2021/10/20 00:33:05;;;;;;;19.55;2.63;;;14.90;99.90;;;;;;5052008;28;20020;-89
2021/10/20 00:35:32;;;;;;;30.13;3.17;;;14.90;99.90;;;;;;5052080;28;20036;-89
2021/10/20 00:37:58;;;;;;;22.45;3.05;;;14.90;99.90;;;;;;5051805;28;20021;-89
2021/10/20 00:40:23;;;;;;;15.43;2.65;;;14.90;99.90;;;;;;5051989;28;20753;-89
2021/10/20 00:42:49;;;;;;;13.25;2.63;;;14.80;99.90;;;;;;5051946;28;20112;-89
2021/10/20 00:45:15;;;;;;;17.73;3.08;;;14.90;99.90;;;;;;5051800;28;20086;-89
2021/10/20 00:47:41;;;;;;;19.30;2.22;;;14.80;99.90;;;;;;5051605;28;20025;-89
2021/10/20 00:50:11;;;;;;;16.48;2.83;;;14.80;99.90;;;;;;5051704;28;20041;-89
2021/10/20 00:52:38;;;;;;;18.17;3.25;;;14.80;99.90;;;;;;5049727;28;20465;-89
2021/10/20 00:55:05;;;;;;;18.35;3.22;;;14.80;99.90;;;;;;5051562;28;20032;-90
2021/10/20 00:57:32;;;;;;;15.18;2.70;;;14.70;99.90;;;;;;5051745;28;20449;-89
2021/10/20 01:00:03;;;;;;;19.45;2.53;;;14.70;99.90;;;;;;5051785;28;20021;-90
2021/10/20 01:02:29;;;;;;;13.55;2.67;;;14.70;99.90;;;;;;5051490;28;20071;-89
2021/10/20 01:04:55;;;;;;;15.95;2.40;;;14.70;99.90;;;;;;5051943;28;20049;-89
2021/10/20 01:07:22;;;;;;;12.70;2.65;;;14.70;99.90;;;;;;5051722;28;20052;-88
2021/10/20 01:09:49;;;;;;;18.30;3.95;;;14.60;99.90;;;;;;5051612;28;20136;-89
2021/10/20 01:12:16;;;;;;;22.77;2.47;;;14.60;99.90;;;;;;5048848;28;20120;-89
2021/10/20 01:14:43;;;;;;;23.52;3.38;;;14.60;99.90;;;;;;5051775;28;20036;-88
2021/10/20 01:17:08;;;;;;;16.20;2.65;;;14.60;99.90;;;;;;5051410;28;20021;-88
2021/10/20 01:19:35;;;;;;;18.00;3.50;;;14.60;99.90;;;;;;5051367;28;20061;-88
2021/10/20 01:22:01;;;;;;;24.30;4.05;;;14.60;99.90;;;;;;5050721;28;20402;-89
2021/10/20 01:24:27;;;;;;;21.48;3.00;;;14.50;99.90;;;;;;5051526;28;20025;-89
2021/10/20 01:26:55;;;;;;;20.30;3.00;;;14.50;99.90;;;;;;5051379;28;20040;-88
2021/10/20 01:29:21;;;;;;;10.40;2.83;;;14.50;99.90;;;;;;5051320;28;20066;-88
2021/10/20 01:31:52;;;;;;;14.50;3.15;;;14.50;99.90;;;;;;5052376;28;20028;-89
2021/10/20 01:34:18;;;;;;;19.10;3.10;;;14.50;99.90;;;;;;5053234;28;20017;-88
2021/10/20 01:36:44;;;;;;;14.40;2.22;;;14.40;99.90;;;;;;5055629;28;20108;-89
2021/10/20 01:39:10;;;;;;;16.45;2.85;;;14.40;99.90;;;;;;5055532;28;20021;-89
2021/10/20 01:41:37;;;;;;;18.05;2.72;;;14.40;99.90;;;;;;5055443;28;20023;-89
2021/10/20 01:44:04;;;;;;;18.35;2.78;;;14.40;99.90;;;;;;5055112;28;20112;-90
2021/10/20 01:46:31;;;;;;;15.88;2.40;;;14.40;99.90;;;;;;5055438;28;20028;-89
2021/10/20 01:48:56;;;;;;;18.10;3.63;;;14.30;99.90;;;;;;5055313;28;20063;-89
2021/10/20 01:51:22;;;;;;;11.23;2.70;;;14.30;99.90;;;;;;5054790;28;20112;-89
2021/10/20 01:53:48;;;;;;;17.85;2.55;;;14.30;99.90;;;;;;5055191;28;20021;-89
2021/10/20 01:56:14;;;;;;;25.50;2.92;;;14.30;99.90;;;;;;5055056;28;20031;-88
2021/10/20 01:58:41;;;;;;;26.15;2.80;;;14.30;99.90;;;;;;5057132;28;20467;-89
2021/10/20 02:01:08;;;;;;;19.42;3.20;;;14.20;99.90;;;;;;5057754;28;20059;-90
2021/10/20 02:03:36;;;;;;;14.65;2.15;;;14.20;99.90;;;;;;5054218;28;20116;-89
2021/10/20 02:06:03;;;;;;;18.30;3.13;;;14.20;99.90;;;;;;5056761;28;20082;-89
2021/10/20 02:08:29;;;;;;;17.52;3.33;;;14.10;99.90;;;;;;5061727;28;20029;-89
2021/10/20 02:10:55;;;;;;;16.02;3.58;;;14.10;99.90;;;;;;5056422;28;20427;-89
2021/10/20 02:13:21;;;;;;;19.08;2.47;;;14.10;99.90;;;;;;5059526;28;20028;-89
2021/10/20 02:15:47;;;;;;;17.45;2.42;;;14.10;99.90;;;;;;5062225;28;20052;-89
2021/10/20 02:18:12;;;;;;;10.70;2.25;;;14.10;99.90;;;;;;5063133;28;20120;-88
2021/10/20 02:20:38;;;;;;;19.08;2.58;;;14.10;99.90;;;;;;5061004;28;20041;-89
2021/10/20 02:23:04;;;;;;;19.95;3.03;;;14.10;99.90;;;;;;5060772;28;20031;-88
2021/10/20 02:25:29;;;;;;;21.50;3.20;;;14.00;99.90;;;;;;5055558;28;20112;-89
2021/10/20 02:27:55;;;;;;;26.20;3.65;;;14.00;99.90;;;;;;5055700;28;20371;-89
2021/10/20 02:30:21;;;;;;;17.30;3.17;;;14.00;99.90;;;;;;5054840;28;20044;-89
2021/10/20 02:32:47;;;;;;;25.48;2.85;;;14.00;99.90;;;;;;5055052;28;20390;-88
2021/10/20 02:35:13;;;;;;;14.95;2.78;;;14.00;99.90;;;;;;5054759;28;20021;-88
2021/10/20 02:37:39;;;;;;;24.50;2.50;;;14.00;99.90;;;;;;5055154;28;20017;-88
2021/10/20 02:40:07;;;;;;;19.80;3.10;;;13.90;99.90;;;;;;5054328;28;20028;-88
2021/10/20 02:42:32;;;;;;;10.02;2.58;;;13.90;99.90;;;;;;5053773;28;20025;-88
2021/10/20 02:44:58;;;;;;;19.60;3.33;;;13.90;99.90;;;;;;5053964;28;20027;-88
2021/10/20 02:47:23;;;;;;;16.70;2.50;;;13.90;99.90;;;;;;5053999;28;20479;-88
2021/10/20 02:49:49;;;;;;;23.17;3.83;;;13.80;99.90;;;;;;5054028;28;20502;-89
2021/10/20 02:52:15;;;;;;;17.85;2.65;;;13.80;99.90;;;;;;5053986;28;20021;-89
2021/10/20 02:54:41;;;;;;;16.85;2.42;;;13.80;99.90;;;;;;5054028;28;20074;-89
2021/10/20 02:57:06;;;;;;;20.65;2.80;;;13.80;99.90;;;;;;5053859;28;20033;-89
2021/10/20 02:59:32;;;;;;;12.13;2.17;;;13.80;99.90;;;;;;5053971;28;20112;-89
2021/10/20 03:01:58;;;;;;;7.38;1.70;;;13.80;99.90;;;;;;5053799;28;20025;-89
2021/10/20 03:04:24;;;;;;;11.60;2.03;;;13.70;99.90;;;;;;5053914;28;20052;-88
2021/10/20 03:06:50;;;;;;;24.98;3.08;;;13.70;99.90;;;;;;5053852;28;20032;-89
2021/10/20 03:09:16;;;;;;;20.30;3.08;;;13.80;99.90;;;;;;5053470;28;20017;-89
2021/10/20 03:11:41;;;;;;;24.85;3.03;;;13.80;99.90;;;;;;5053856;28;20049;-89
2021/10/20 03:14:07;;;;;;;22.77;2.97;;;13.70;99.90;;;;;;5053973;28;20025;-89
2021/10/20 03:16:33;;;;;;;18.83;2.50;;;13.70;99.90;;;;;;5053407;28;20052;-88
2021/10/20 03:18:59;;;;;;;9.23;2.05;;;13.70;99.90;;;;;;5053327;28;20033;-88
2021/10/20 03:21:25;;;;;;;13.02;3.58;;;13.70;99.90;;;;;;5053486;28;20021;-89
2021/10/20 03:23:51;;;;;;;17.48;2.58;;;13.70;99.90;;;;;;5054216;28;20036;-88
2021/10/20 03:26:16;;;;;;;18.75;3.90;;;13.70;99.90;;;;;;5053239;28;20021;-88
2021/10/20 03:28:42;;;;;;;22.65;2.85;;;13.70;99.90;;;;;;5053355;28;20025;-86
2021/10/20 03:31:08;;;;;;;20.90;4.00;;;13.70;99.90;;;;;;5053089;28;20086;-89
2021/10/20 03:33:33;;;;;;;22.17;2.80;;;13.70;99.90;;;;;;5053429;28;20035;-89
2021/10/20 03:35:59;;;;;;;10.35;2.42;;;13.70;99.90;;;;;;5052989;28;20486;-89
2021/10/20 03:38:24;;;;;;;16.77;3.05;;;13.70;99.90;;;;;;5053014;28;20055;-88
2021/10/20 03:40:50;;;;;;;14.05;2.30;;;13.70;99.90;;;;;;5052620;28;20100;-88
2021/10/20 03:43:16;;;;;;;23.60;4.25;;;13.70;99.90;;;;;;5052850;28;20017;-88
2021/10/20 03:45:41;;;;;;;20.52;3.25;;;13.70;99.90;;;;;;5053160;28;20079;-88
2021/10/20 03:48:07;;;;;;;21.27;3.90;;;13.70;99.90;;;;;;5052756;28;20014;-88
2021/10/20 03:50:33;;;;;;;23.45;3.08;;;13.70;99.90;;;;;;5052445;28;20049;-87
2021/10/20 03:52:59;;;;;;;20.05;2.50;;;13.70;99.90;;;;;;5052845;28;20405;-89
2021/10/20 03:55:25;;;;;;;8.95;1.90;;;13.70;99.90;;;;;;5051804;28;20028;-88
2021/10/20 03:57:51;;;;;;;23.45;3.03;;;13.70;99.90;;;;;;5052618;28;20017;-90
2021/10/20 04:00:18;;;;;;;18.45;2.67;;;13.70;99.90;;;;;;5052566;28;20082;-89
2021/10/20 04:02:46;;;;;;;19.65;2.47;;;13.70;99.90;;;;;;5052921;28;20017;-89
2021/10/20 04:05:21;;;;;;;23.05;2.50;;;13.70;99.90;;;;;;5052585;28;20489;-89
2021/10/20 04:07:49;;;;;;;19.30;2.97;;;13.70;99.90;;;;;;5052270;28;20025;-90
2021/10/20 04:10:17;;;;;;;18.15;2.55;;;13.60;99.90;;;;;;5077468;28;20098;-89
2021/10/20 04:12:44;;;;;;;18.35;2.83;;;13.60;99.90;;;;;;5052738;28;20449;-88
2021/10/20 04:15:11;;;;;;;20.17;2.42;;;13.60;99.90;;;;;;5052531;28;20037;-88
2021/10/20 04:17:40;;;;;;;13.27;2.30;;;13.50;99.90;;;;;;5052277;28;20028;-88
2021/10/20 04:20:07;;;;;;;19.98;2.47;;;13.50;99.90;;;;;;5052046;28;20018;-89
2021/10/20 04:22:33;;;;;;;21.27;2.85;;;13.50;99.90;;;;;;5052259;28;20518;-89
2021/10/20 04:24:59;;;;;;;19.00;3.17;;;13.50;99.90;;;;;;5052183;28;20009;-88
2021/10/20 04:27:25;;;;;;;20.55;2.67;;;13.40;99.90;;;;;;5052339;28;20025;-89
2021/10/20 04:29:51;;;;;;;22.85;2.47;;;13.40;99.90;;;;;;5052022;28;20571;-89
2021/10/20 04:32:17;;;;;;;21.45;3.08;;;13.40;99.90;;;;;;5052568;28;20025;-89
2021/10/20 04:34:42;;;;;;;20.58;3.00;;;13.40;99.90;;;;;;5052013;28;20029;-88
2021/10/20 04:37:08;;;;;;;15.77;2.08;;;13.40;99.90;;;;;;5051945;28;20104;-88
2021/10/20 04:39:33;;;;;;;19.40;2.40;;;13.40;99.90;;;;;;5051910;28;20055;-89
2021/10/20 04:41:59;;;;;;;21.95;3.10;;;13.40;99.90;;;;;;5051957;28;20029;-90
2021/10/20 04:44:25;;;;;;;15.38;2.08;;;13.30;99.90;;;;;;5051462;28;20021;-89
2021/10/20 04:46:51;;;;;;;19.73;3.30;;;13.30;99.90;;;;;;5051807;28;20024;-88
2021/10/20 04:49:16;;;;;;;12.50;2.30;;;13.30;99.90;;;;;;5048449;28;20107;-89
2021/10/20 04:51:42;;;;;;;18.75;2.72;;;13.30;99.90;;;;;;5051699;28;20065;-88
2021/10/20 04:54:08;;;;;;;20.23;2.63;;;13.30;99.90;;;;;;5051640;28;20159;-89
2021/10/20 04:56:33;;;;;;;13.35;2.45;;;13.20;99.90;;;;;;5051665;28;20092;-89
2021/10/20 04:58:59;;;;;;;17.48;2.65;;;13.20;99.90;;;;;;5051589;28;20116;-89
2021/10/20 05:01:24;;;;;;;20.02;2.90;;;13.20;99.90;;;;;;5051654;28;20027;-88
2021/10/20 05:03:50;;;;;;;12.70;2.15;;;13.20;99.90;;;;;;5051617;28;20123;-88
2021/10/20 05:06:16;;;;;;;18.10;2.92;;;13.10;99.90;;;;;;5053204;28;20103;-89
2021/10/20 05:08:41;;;;;;;19.95;2.95;;;13.10;99.90;;;;;;5055433;28;20570;-88
2021/10/20 05:11:07;;;;;;;15.48;2.50;;;13.10;99.90;;;;;;5055585;28;20494;-88
2021/10/20 05:13:33;;;;;;;22.65;2.97;;;13.00;99.90;;;;;;5055525;28;20013;-88
2021/10/20 05:15:58;;;;;;;17.75;2.60;;;13.00;99.90;;;;;;5055512;28;20023;-88
2021/10/20 05:18:24;;;;;;;17.33;2.72;;;13.00;99.90;;;;;;5055682;28;20052;-88
2021/10/20 05:20:50;;;;;;;23.27;3.75;;;12.90;99.90;;;;;;5055846;28;20028;-89
2021/10/20 05:23:16;;;;;;;22.83;2.30;;;12.90;99.90;;;;;;5055381;28;20088;-88
2021/10/20 05:25:42;;;;;;;25.20;2.80;;;12.90;99.90;;;;;;5055493;28;20036;-89
2021/10/20 05:28:08;;;;;;;21.17;3.05;;;12.80;99.90;;;;;;5055599;28;20025;-88
2021/10/20 05:30:34;;;;;;;31.25;4.60;;;12.80;99.90;;;;;;5055411;28;20067;-89
2021/10/20 05:33:00;;;;;;;16.90;2.78;;;12.80;99.90;;;;;;5055114;28;20363;-89
2021/10/20 05:35:26;;;;;;;19.85;2.65;;;12.70;99.90;;;;;;5055377;28;20029;-89
2021/10/20 05:40:27;;;;;;;20.55;2.80;;;12.70;99.90;;;;;;5043869;28;20078;-88
2021/10/20 05:42:52;;;;;;;24.38;3.17;;;12.60;99.90;;;;;;5060026;28;20111;-89
2021/10/20 05:45:18;;;;;;;18.45;2.60;;;12.60;99.90;;;;;;5055517;28;20133;-88
2021/10/20 05:47:44;;;;;;;19.77;3.10;;;12.50;99.90;;;;;;5054840;28;20025;-89
2021/10/20 05:52:35;;;;;;;16.00;2.05;;;12.40;99.90;;;;;;5038178;28;20079;-88
2021/10/20 05:55:02;;;;;;;14.48;2.03;;;12.50;99.90;;;;;;5054487;28;20028;-89
2021/10/20 05:59:55;;;;;;;23.25;2.63;;;12.40;99.90;;;;;;5065239;28;20036;-88
2021/10/20 06:02:21;;;;;;;18.17;2.17;;;12.40;99.90;;;;;;5054273;28;20041;-89
2021/10/20 06:04:46;;;;;;;21.98;2.35;;;12.30;99.90;;;;;;5054724;28;20083;-90
2021/10/20 06:07:12;;;;;;;19.48;2.72;;;12.30;99.90;;;;;;5054116;28;20497;-89
2021/10/20 06:09:38;;;;;;;12.10;2.15;;;12.30;99.90;;;;;;5054374;28;20505;-89
2021/10/20 06:12:05;;;;;;;19.15;3.13;;;12.30;99.90;;;;;;5054678;28;20021;-90
2021/10/20 06:14:31;;;;;;;16.75;3.10;;;12.30;99.90;;;;;;5054558;28;20021;-89
2021/10/20 06:16:58;;;;;;;23.38;2.90;;;12.20;99.90;;;;;;5054163;28;20033;-88
2021/10/20 06:19:23;;;;;;;11.95;2.20;;;12.20;99.90;;;;;;5054014;28;20080;-90
2021/10/20 06:21:49;;;;;;;21.55;2.40;;;12.20;99.90;;;;;;5055371;28;20044;-90
2021/10/20 06:24:16;;;;;;;23.42;2.83;;;12.20;99.90;;;;;;5054899;28;20029;-89
2021/10/20 06:26:42;;;;;;;21.80;3.13;;;12.20;99.90;;;;;;5054650;28;20033;-88
2021/10/20 06:29:08;;;;;;;26.35;3.75;;;12.20;99.90;;;;;;5054675;28;20021;-89
2021/10/20 06:31:34;;;;;;;20.13;2.63;;;12.20;99.90;;;;;;5054624;28;20075;-88
2021/10/20 06:34:00;;;;;;;16.40;3.05;;;12.10;99.90;;;;;;5055008;28;20072;-88
2021/10/20 06:36:31;;;;;;;25.05;3.03;;;12.10;99.90;;;;;;5054880;28;20032;-89
2021/10/20 06:38:58;;;;;;;23.55;3.00;;;12.10;99.90;;;;;;5055260;28;20021;-89
2021/10/20 06:41:23;;;;;;;25.58;3.15;;;12.10;99.90;;;;;;5054630;28;20119;-90
2021/10/20 06:43:49;;;;;;;29.40;3.72;;;12.10;99.90;;;;;;5055111;28;20064;-89
2021/10/20 06:46:15;;;;;;;30.48;3.45;;;12.10;99.90;;;;;;5054583;28;20086;-89
2021/10/20 06:48:40;;;;;;;26.38;3.88;;;12.10;99.90;;;;;;5054903;28;20021;-89
2021/10/20 06:51:07;;;;;;;25.77;3.55;;;12.00;99.90;;;;;;5053983;28;20068;-90
2021/10/20 06:53:33;;;;;;;16.25;3.38;;;12.00;99.90;;;;;;5053737;28;20025;-89
2021/10/20 06:56:01;;;;;;;20.80;4.28;;;12.00;99.90;;;;;;5054588;28;20025;-88
2021/10/20 06:58:26;;;;;;;22.55;3.95;;;12.00;99.90;;;;;;5054112;28;20033;-89
2021/10/20 07:00:52;;;;;;;20.00;3.33;;;12.00;99.90;;;;;;5054317;28;20028;-88
2021/10/20 07:03:18;;;;;;;24.67;3.65;;;12.00;99.90;;;;;;5054447;28;20033;-88
2021/10/20 07:05:43;;;;;;;21.55;3.40;;;11.90;99.90;;;;;;5054109;28;20036;-90
2021/10/20 07:08:09;;;;;;;23.30;3.53;;;12.00;99.90;;;;;;5054321;28;20036;-89
2021/10/20 07:10:36;;;;;;;16.10;3.47;;;12.00;99.90;;;;;;5052220;28;20037;-90
2021/10/20 07:13:02;;;;;;;25.42;4.55;;;12.00;99.90;;;;;;5050886;28;20040;-89
2021/10/20 07:15:28;;;;;;;19.15;3.63;;;12.00;99.90;;;;;;5052321;28;20032;-89
2021/10/20 07:17:54;;;;;;;18.05;3.30;;;12.00;99.90;;;;;;5052569;28;20025;-89
2021/10/20 07:20:20;;;;;;;16.67;3.78;;;12.00;99.90;;;;;;5052238;28;20473;-90
2021/10/20 07:22:45;;;;;;;21.42;3.42;;;12.00;99.90;;;;;;5052122;28;20116;-89
2021/10/20 07:25:14;;;;;;;24.17;4.35;;;12.00;99.90;;;;;;5053466;28;20031;-89
2021/10/20 07:27:39;;;;;;;18.80;3.38;;;12.00;99.90;;;;;;5051082;28;20028;-90
2021/10/20 07:30:08;;;;;;;17.02;3.42;;;12.00;99.90;;;;;;5053214;28;20090;-89
2021/10/20 07:32:34;;;;;;;18.52;3.47;;;12.10;99.90;;;;;;5053306;28;20044;-89
2021/10/20 07:34:59;;;;;;;21.15;4.50;;;12.20;99.90;;;;;;5053660;28;20518;-88
2021/10/20 07:37:25;;;;;;;28.60;5.10;;;12.20;99.90;;;;;;5053820;28;20029;-89
2021/10/20 07:39:51;;;;;;;18.15;6.25;;;12.30;99.90;;;;;;5054061;28;20025;-89
2021/10/20 07:42:17;;;;;;;17.75;5.32;;;12.30;99.90;;;;;;5053650;28;20021;-90
2021/10/20 07:47:10;;;;;;;25.63;7.05;;;12.40;99.90;;;;;;5037116;28;20071;-90
2021/10/20 07:49:35;;;;;;;28.42;7.22;;;12.40;99.90;;;;;;5055115;28;20044;-89
2021/10/20 07:52:01;;;;;;;24.35;6.22;;;12.50;99.90;;;;;;5056040;28;20072;-90
2021/10/20 07:54:27;;;;;;;26.42;6.40;;;12.50;99.90;;;;;;5057001;28;20028;-90
2021/10/20 07:56:53;;;;;;;22.60;6.60;;;12.50;99.90;;;;;;5057373;28;20021;-90
2021/10/20 07:59:20;;;;;;;19.23;5.82;;;12.60;99.90;;;;;;5055954;28;20528;-90
2021/10/20 08:01:45;;;;;;;17.88;6.57;;;12.60;99.90;;;;;;5061113;28;20021;-90
2021/10/20 08:04:11;;;;;;;24.23;6.32;;;12.70;99.90;;;;;;5061336;28;20048;-90
2021/10/20 08:06:36;;;;;;;21.23;7.10;;;12.70;99.90;;;;;;5057686;28;20028;-90
2021/10/20 08:09:02;;;;;;;23.25;6.25;;;12.70;99.90;;;;;;5053319;28;20570;-90
2021/10/20 08:11:29;;;;;;;23.67;6.72;;;12.70;99.90;;;;;;5052586;28;20148;-89
2021/10/20 08:13:55;;;;;;;23.63;6.07;;;12.70;99.90;;;;;;5053081;28;20021;-90
2021/10/20 08:16:21;;;;;;;24.73;5.57;;;12.80;99.90;;;;;;5047513;28;20464;-90
2021/10/20 08:18:46;;;;;;;19.10;6.03;;;12.70;99.90;;;;;;5048971;28;20055;-90
2021/10/20 08:21:12;;;;;;;22.65;5.18;;;12.80;99.90;;;;;;5052047;28;20082;-90
2021/10/20 08:23:41;;;;;;;24.38;5.18;;;12.70;99.90;;;;;;5052996;28;20398;-89
2021/10/20 08:26:08;;;;;;;21.15;4.68;;;12.70;99.90;;;;;;5053019;28;20024;-90
2021/10/20 08:28:33;;;;;;;24.08;3.50;;;12.70;99.90;;;;;;5055585;28;20047;-90
2021/10/20 08:30:59;;;;;;;21.27;3.80;;;12.70;99.90;;;;;;5058828;28;20487;-88
2021/10/20 08:33:25;;;;;;;29.85;5.28;;;12.70;99.90;;;;;;5066142;28;20111;-91
2021/10/20 08:35:51;;;;;;;20.73;3.42;;;12.70;99.90;;;;;;5061686;28;20039;-89
2021/10/20 08:38:17;;;;;;;23.30;4.63;;;12.70;99.90;;;;;;5058902;28;20621;-90
2021/10/20 08:40:47;;;;;;;20.40;4.90;;;12.70;99.90;;;;;;5053639;28;20032;-90
2021/10/20 08:43:15;;;;;;;21.50;4.18;;;12.70;99.90;;;;;;5053429;28;20021;-91
2021/10/20 08:45:43;;;;;;;19.02;4.55;;;12.70;99.90;;;;;;5053393;28;20032;-90
2021/10/20 08:48:10;;;;;;;22.40;4.63;;;12.70;99.90;;;;;;5052419;28;20102;-91
2021/10/20 08:50:36;;;;;;;18.25;4.05;;;12.80;99.90;;;;;;5052575;28;20570;-90
2021/10/20 08:53:04;;;;;;;16.85;4.07;;;12.80;99.90;;;;;;5052568;28;20053;-89
2021/10/20 08:55:30;;;;;;;14.35;3.03;;;12.80;99.90;;;;;;5052150;28;20049;-89
2021/10/20 08:57:56;;;;;;;11.70;2.67;;;12.70;99.90;;;;;;5052315;28;20086;-91
2021/10/20 09:00:22;;;;;;;7.70;2.20;;;12.80;99.90;;;;;;5052901;28;20064;-91
2021/10/20 09:02:49;;;;;;;14.18;3.53;;;12.80;99.90;;;;;;5055157;28;20021;-91
2021/10/20 09:05:19;;;;;;;12.00;2.20;;;12.80;99.90;;;;;;5062666;28;20025;-92
2021/10/20 09:07:47;;;;;;;11.55;2.58;;;12.80;99.90;;;;;;5057584;28;20032;-90
2021/10/20 09:10:14;;;;;;;11.60;2.88;;;12.80;99.90;;;;;;5054958;28;20037;-90
2021/10/20 09:12:41;;;;;;;9.70;2.60;;;12.80;99.90;;;;;;5059369;28;20053;-90
2021/10/20 09:15:15;;;;;;;11.20;2.42;;;12.80;99.90;;;;;;5062354;28;20033;-89
2021/10/20 09:17:45;;;;;;;9.27;2.40;;;12.80;99.90;;;;;;5067060;28;20025;-90
2021/10/20 09:20:27;;;;;;;12.40;2.27;;;12.80;99.90;;;;;;5060481;28;20116;-92
2021/10/20 09:22:58;;;;;;;8.40;1.70;;;12.80;99.90;;;;;;5060847;28;20540;-91
2021/10/20 09:25:35;;;;;;;7.65;1.55;;;12.80;99.90;;;;;;5056194;28;20041;-89
2021/10/20 09:28:01;;;;;;;6.15;1.60;;;12.80;99.90;;;;;;5055588;28;20081;-90
2021/10/20 09:30:29;;;;;;;7.20;1.55;;;12.80;99.90;;;;;;5054345;28;20045;-90
2021/10/20 09:32:58;;;;;;;8.18;1.60;;;12.80;99.90;;;;;;5055142;28;20112;-90
2021/10/20 09:35:24;;;;;;;6.22;1.20;;;12.90;99.90;;;;;;5054652;28;20096;-91
2021/10/20 09:37:58;;;;;;;6.28;1.38;;;12.90;99.90;;;;;;5054588;28;20021;-91
2021/10/20 09:40:24;;;;;;;5.10;1.30;;;12.90;99.90;;;;;;5053442;28;20037;-91
2021/10/20 09:42:53;;;;;;;5.22;1.20;;;13.10;99.90;;;;;;5054192;28;20057;-89
2021/10/20 09:45:20;;;;;;;6.53;1.30;;;13.20;99.90;;;;;;5053790;28;20021;-90
2021/10/20 09:47:46;;;;;;;7.28;1.52;;;13.30;99.90;;;;;;5053889;28;20120;-90
2021/10/20 09:50:17;;;;;;;4.40;0.73;;;13.40;99.90;;;;;;5052697;28;20078;-89
2021/10/20 09:52:49;;;;;;;3.95;1.05;;;13.60;99.90;;;;;;5053061;28;20052;-90
2021/10/20 09:55:36;;;;;;;8.43;1.38;;;13.70;99.90;;;;;;5055714;28;20029;-90
2021/10/20 09:58:09;;;;;;;4.18;0.75;;;13.70;99.90;;;;;;5055235;28;20581;-89
2021/10/20 10:00:35;;;;;;;4.65;0.65;;;13.80;99.90;;;;;;5054696;28;20039;-89
2021/10/20 10:03:02;;;;;;;2.63;0.63;;;13.80;99.90;;;;;;5055466;28;20108;-90
2021/10/20 10:05:29;;;;;;;5.05;1.23;;;14.00;99.90;;;;;;5053987;28;20021;-91
2021/10/20 10:07:55;;;;;;;0.50;0.40;;;14.20;99.90;;;;;;5055042;28;20036;-91
2021/10/20 10:10:21;;;;;;;4.30;0.70;;;14.60;99.90;;;;;;5055036;28;20029;-92
2021/10/20 10:12:48;;;;;;;2.30;0.85;;;14.80;99.90;;;;;;5054654;28;20021;-92
2021/10/20 10:15:17;;;;;;;1.80;0.60;;;14.90;99.90;;;;;;5062902;28;20025;-91
2021/10/20 10:17:45;;;;;;;4.20;0.90;;;15.00;99.90;;;;;;5061136;28;20079;-91
2021/10/20 10:20:14;;;;;;;2.85;0.80;;;15.00;99.90;;;;;;5055448;28;20036;-89
2021/10/20 10:23:02;;;;;;;4.00;0.40;;;15.00;99.90;;;;;;5064045;28;20017;-92
2021/10/20 10:25:32;;;;;;;5.40;0.90;;;14.90;99.90;;;;;;5055133;28;20028;-91
2021/10/20 10:28:04;;;;;;;;;;;14.80;99.90;;;;;;5053731;28;20594;-89
2021/10/20 10:30:49;;;;;;;1.90;0.50;;;14.70;99.90;;;;;;5056396;28;19917;-91
2021/10/20 10:33:20;;;;;;;4.13;0.80;;;14.60;99.90;;;;;;5036822;28;20124;-91
2021/10/20 10:36:05;;;;;;;4.95;0.70;;;14.50;99.90;;;;;;5044210;28;20031;-90
2021/10/20 10:38:40;;;;;;;6.63;0.70;;;14.40;99.90;;;;;;5041240;28;20033;-91
2021/10/20 10:41:20;;;;;;;8.30;2.55;;;14.30;99.90;;;;;;5046870;28;20030;-90
2021/10/20 10:44:05;;;;;;;2.67;1.08;;;14.30;99.90;;;;;;5064896;28;20445;-90
2021/10/20 10:46:51;;;;;;;2.78;0.60;;;14.20;99.90;;;;;;5062987;28;20449;-91
2021/10/20 10:49:34;;;;;;;2.17;1.08;;;14.10;99.90;;;;;;5057991;28;20033;-92
2021/10/20 10:52:05;;;;;;;5.82;1.20;;;14.00;99.90;;;;;;5054913;28;20049;-90
2021/10/20 10:54:34;;;;;;;6.15;1.00;;;14.10;99.90;;;;;;5054959;28;20079;-91
2021/10/20 10:57:14;;;;;;;4.35;1.70;;;14.10;99.90;;;;;;5054790;28;20056;-90
2021/10/20 10:59:52;;;;;;;2.40;0.60;;;14.10;99.90;;;;;;5055386;28;20124;-92
2021/10/20 11:02:52;;;;;;;4.28;1.08;;;14.00;99.90;;;;;;5060603;28;20125;-90
2021/10/20 11:05:20;;;;;;;6.95;1.23;;;14.00;99.90;;;;;;5057223;28;20064;-91
2021/10/20 11:07:50;;;;;;;5.55;0.73;;;14.00;99.90;;;;;;5058245;28;20047;-90
2021/10/20 11:10:17;;;;;;;1.50;0.60;;;14.00;99.90;;;;;;5065545;28;20041;-90
2021/10/20 11:12:47;;;;;;;3.15;0.80;;;14.00;99.90;;;;;;5070369;28;20021;-90
2021/10/20 11:15:14;;;;;;;8.30;1.00;;;14.00;99.90;;;;;;5063534;28;20036;-91
2021/10/20 11:17:40;;;;;;;3.85;1.02;;;14.10;99.90;;;;;;5068195;28;20029;-92
2021/10/20 11:20:08;;;;;;;6.03;1.00;;;14.50;99.90;;;;;;5066273;28;20070;-91
2021/10/20 11:22:34;;;;;;;3.65;1.02;;;14.90;99.90;;;;;;5068846;28;20513;-91
2021/10/20 11:25:02;;;;;;;4.10;0.90;;;15.40;99.90;;;;;;5067225;28;20125;-91
2021/10/20 11:27:29;;;;;;;7.00;1.63;;;15.80;99.90;;;;;;5069631;28;20025;-90
2021/10/20 11:29:54;;;;;;;3.25;0.60;;;16.00;99.90;;;;;;5069448;28;20039;-90
2021/10/20 11:32:22;;;;;;;2.47;0.63;;;16.10;99.90;;;;;;5053527;28;20056;-88
2021/10/20 11:34:48;;;;;;;3.47;0.85;;;16.30;99.90;;;;;;5073269;28;20082;-90
2021/10/20 11:37:15;;;;;;;3.50;0.60;;;16.30;99.90;;;;;;5056421;28;20052;-90
2021/10/20 11:39:49;;;;;;;6.13;2.75;;;16.40;99.90;;;;;;5055821;28;20021;-91
2021/10/20 11:42:15;;;;;;;5.43;1.10;;;16.30;99.90;;;;;;5054253;28;20032;-90
2021/10/20 11:44:42;;;;;;;3.20;1.13;;;16.20;99.90;;;;;;5068563;28;20017;-90
2021/10/20 11:47:11;;;;;;;3.25;0.80;;;16.10;99.90;;;;;;5073952;28;20058;-91
2021/10/20 11:49:43;;;;;;;5.25;1.10;;;16.20;99.90;;;;;;5073795;28;20025;-91
2021/10/20 11:52:11;;;;;;;4.20;0.98;;;16.40;99.90;;;;;;5074026;28;20088;-91
2021/10/20 11:54:38;;;;;;;4.88;1.00;;;16.40;99.90;;;;;;5073688;28;20085;-90
2021/10/20 11:57:07;;;;;;;2.70;0.50;;;16.50;99.90;;;;;;5073959;28;20490;-90
2021/10/20 11:59:37;;;;;;;5.13;0.80;;;16.50;99.90;;;;;;5069217;28;20508;-90
2021/10/20 12:02:05;;;;;;;2.75;0.60;;;16.50;99.90;;;;;;5073833;28;20546;-90
2021/10/20 12:04:31;;;;;;;3.70;0.70;;;16.30;99.90;;;;;;5074620;28;20048;-89
2021/10/20 12:07:02;;;;;;;8.32;1.30;;;16.20;99.90;;;;;;5074100;28;20071;-90
2021/10/20 12:09:31;;;;;;;4.82;0.75;;;16.00;99.90;;;;;;5074034;28;20021;-90
2021/10/20 12:11:58;;;;;;;7.40;0.93;;;15.80;99.90;;;;;;5073428;28;20028;-90
2021/10/20 12:14:43;;;;;;;1.85;0.80;;;15.60;99.90;;;;;;5073834;28;20046;-91
2021/10/20 12:17:11;;;;;;;7.10;0.80;;;15.40;99.90;;;;;;5068036;28;20020;-93
2021/10/20 12:19:40;;;;;;;12.55;3.33;;;15.20;99.90;;;;;;5054074;28;20029;-91
2021/10/20 12:22:11;;;;;;;7.80;1.40;;;15.00;99.90;;;;;;5053473;28;20057;-92
2021/10/20 12:24:48;;;;;;;7.50;1.55;;;14.90;99.90;;;;;;5053444;28;20104;-90
2021/10/20 12:27:14;;;;;;;6.97;1.90;;;14.70;99.90;;;;;;5053721;28;20029;-90
2021/10/20 12:29:46;;;;;;;10.77;3.63;;;14.60;99.90;;;;;;5052613;28;20044;-92
2021/10/20 12:32:27;;;;;;;4.72;2.10;;;14.40;99.90;;;;;;5053966;28;20051;-90
2021/10/20 12:35:03;;;;;;;2.08;1.30;;;14.20;99.90;;;;;;5048864;28;20032;-89
2021/10/20 12:37:38;;;;;;;2.50;1.30;;;14.10;99.90;;;;;;5051706;28;20073;-90
2021/10/20 12:40:20;;;;;;;5.93;1.50;;;14.00;99.90;;;;;;5052285;28;20036;-90
2021/10/20 12:42:50;;;;;;;2.08;0.88;;;14.00;99.90;;;;;;5052413;28;20048;-90
2021/10/20 12:45:16;;;;;;;6.13;2.25;;;14.10;99.90;;;;;;5052054;28;20046;-92
2021/10/20 12:47:44;;;;;;;4.53;1.50;;;14.50;99.90;;;;;;5052368;28;20048;-92
2021/10/20 12:50:13;;;;;;;5.30;1.70;;;15.00;99.90;;;;;;5054115;28;20517;-90
2021/10/20 12:52:40;;;;;;;5.25;1.73;;;15.50;99.90;;;;;;5051423;28;20128;-90